Time;durP1;ratioP1;P1;durP2;ratioP2;P2;SDS_P1;SDS_P2;PMS_P1;PMS_P2;Temp;Humidity;BMP_temperature;BMP_pressure;BME280_temperature;BME280_humidity;BME280_pressure;Samples;Min_cycle;Max_cycle;Signal;HPM_P1;HPM_P2
2023/07/04 00:01:01;;;;;;;10.45;1.65;;;11.60;99.90;;;;;;5073982;28;20050;-56
2023/07/04 00:03:28;;;;;;;8.07;1.50;;;11.70;99.90;;;;;;5073130;28;20059;-56
2023/07/04 00:05:55;;;;;;;10.13;1.27;;;11.50;99.90;;;;;;5073354;28;20143;-54
2023/07/04 00:08:22;;;;;;;13.10;1.55;;;11.60;99.90;;;;;;5074092;28;20323;-56
2023/07/04 00:10:50;;;;;;;11.38;1.58;;;11.70;99.90;;;;;;5057404;28;20047;-56
2023/07/04 00:13:17;;;;;;;12.52;1.65;;;11.70;99.90;;;;;;5075922;28;20051;-56
2023/07/04 00:15:51;;;;;;;12.75;2.05;;;11.70;99.90;;;;;;5055624;28;20048;-56
2023/07/04 00:18:20;;;;;;;10.73;1.92;;;11.70;99.90;;;;;;5074072;28;20051;-56
2023/07/04 00:21:00;;;;;;;7.90;1.60;;;11.50;99.90;;;;;;5074981;28;20096;-56
2023/07/04 00:23:31;;;;;;;8.10;1.73;;;12.80;99.90;;;;;;5073978;28;20052;-56
2023/07/04 00:25:57;;;;;;;7.75;1.70;;;11.40;99.90;;;;;;5074049;28;20967;-56
2023/07/04 00:28:24;;;;;;;13.32;2.10;;;11.50;99.90;;;;;;5073529;28;20053;-56
2023/07/04 00:30:54;;;;;;;6.75;1.60;;;11.30;99.90;;;;;;5074758;28;20036;-56
2023/07/04 00:33:22;;;;;;;9.55;1.77;;;11.20;99.90;;;;;;5073923;28;20044;-56
2023/07/04 00:35:49;;;;;;;10.23;1.70;;;11.20;99.90;;;;;;5074195;28;20426;-56
2023/07/04 00:38:16;;;;;;;12.43;1.77;;;11.30;99.90;;;;;;5073526;28;20039;-56
2023/07/04 00:40:44;;;;;;;9.27;1.80;;;11.20;99.90;;;;;;5055886;28;20572;-56
2023/07/04 00:43:12;;;;;;;16.67;2.53;;;11.20;99.90;;;;;;5073242;28;20439;-54
2023/07/04 00:45:43;;;;;;;9.63;1.70;;;11.20;99.90;;;;;;5055294;28;20422;-56
2023/07/04 00:48:12;;;;;;;12.10;1.85;;;11.10;99.90;;;;;;5072307;28;20040;-56
2023/07/04 00:50:46;;;;;;;8.18;2.45;;;11.20;99.90;;;;;;5072628;28;20109;-56
2023/07/04 00:53:15;;;;;;;13.90;1.98;;;11.10;99.90;;;;;;5072515;28;20032;-56
2023/07/04 00:55:47;;;;;;;11.55;1.90;;;11.10;99.90;;;;;;5072231;28;20040;-56
2023/07/04 00:58:15;;;;;;;10.07;2.75;;;11.00;99.90;;;;;;5072485;28;20044;-56
2023/07/04 01:00:42;;;;;;;9.73;1.85;;;11.00;99.90;;;;;;5072241;28;20051;-56
2023/07/04 01:03:20;;;;;;;10.23;1.90;;;10.90;99.90;;;;;;5072177;28;20056;-56
2023/07/04 01:06:11;;;;;;;15.85;2.78;;;10.90;99.90;;;;;;5070550;28;20100;-56
2023/07/04 01:08:42;;;;;;;8.52;1.95;;;10.90;99.90;;;;;;5072664;28;20048;-56
2023/07/04 01:11:18;;;;;;;7.35;1.83;;;10.90;99.90;;;;;;5073840;28;20691;-55
2023/07/04 01:13:44;;;;;;;9.88;1.70;;;10.90;99.90;;;;;;5073509;28;20109;-56
2023/07/04 01:16:13;;;;;;;13.88;1.98;;;11.00;99.90;;;;;;5072302;28;20055;-56
2023/07/04 01:18:41;;;;;;;10.20;1.88;;;10.90;99.90;;;;;;5052799;28;20032;-55
2023/07/04 01:21:08;;;;;;;10.77;1.83;;;11.10;99.90;;;;;;5072529;28;20131;-56
2023/07/04 01:23:54;;;;;;;6.50;1.60;;;11.00;99.90;;;;;;5053101;28;20484;-56
2023/07/04 01:26:38;;;;;;;12.88;2.20;;;10.90;99.90;;;;;;5072297;28;20044;-55
2023/07/04 01:29:13;;;;;;;11.95;2.17;;;11.00;99.90;;;;;;5072631;28;20069;-56
2023/07/04 01:31:40;;;;;;;10.18;1.63;;;11.20;99.90;;;;;;5073210;28;20044;-56
2023/07/04 01:34:08;;;;;;;10.77;2.00;;;11.10;99.90;;;;;;5073497;28;20768;-55
2023/07/04 01:36:37;;;;;;;9.32;2.15;;;11.20;99.90;;;;;;5072591;28;20075;-56
2023/07/04 01:39:04;;;;;;;9.50;1.75;;;11.20;99.90;;;;;;5072909;28;20070;-54
2023/07/04 01:41:30;;;;;;;9.55;2.10;;;11.00;99.90;;;;;;5055474;28;20036;-55
2023/07/04 01:44:03;;;;;;;11.02;1.98;;;11.00;99.90;;;;;;5073780;28;20119;-55
2023/07/04 01:46:29;;;;;;;9.50;2.17;;;11.20;99.90;;;;;;5073350;28;20047;-54
2023/07/04 01:48:55;;;;;;;7.72;2.65;;;10.90;99.90;;;;;;5072937;28;20048;-56
2023/07/04 01:51:47;;;;;;;8.98;2.30;;;11.10;99.90;;;;;;5072599;28;20045;-55
2023/07/04 01:54:17;;;;;;;10.27;2.33;;;11.00;99.90;;;;;;5069188;28;20052;-55
2023/07/04 01:56:47;;;;;;;9.48;2.20;;;11.30;99.90;;;;;;5073281;28;20127;-55
2023/07/04 01:59:14;;;;;;;9.38;2.55;;;11.10;99.90;;;;;;5055197;28;20051;-56
2023/07/04 02:01:40;;;;;;;10.68;2.20;;;9.20;99.90;;;;;;5073134;28;20694;-56
2023/07/04 02:04:06;;;;;;;9.38;1.95;;;11.30;99.90;;;;;;5053765;28;20040;-55
2023/07/04 02:06:32;;;;;;;7.45;2.20;;;11.30;99.90;;;;;;5070694;28;20084;-55
2023/07/04 02:08:57;;;;;;;9.60;2.28;;;11.40;99.90;;;;;;5072555;28;20121;-55
2023/07/04 02:11:23;;;;;;;9.18;2.13;;;11.30;99.90;;;;;;5077532;28;20138;-55
2023/07/04 02:13:49;;;;;;;8.95;2.00;;;11.50;99.90;;;;;;5075875;28;20036;-55
2023/07/04 02:16:15;;;;;;;6.93;1.90;;;11.60;99.90;;;;;;5076251;28;20378;-55
2023/07/04 02:18:40;;;;;;;7.22;2.08;;;11.60;99.90;;;;;;5075559;28;20373;-55
2023/07/04 02:21:06;;;;;;;11.13;2.28;;;11.50;99.90;;;;;;5076820;28;20048;-54
2023/07/04 02:23:32;;;;;;;11.85;2.13;;;11.70;99.90;;;;;;5057699;28;20173;-55
2023/07/04 02:25:58;;;;;;;6.88;2.20;;;11.70;99.90;;;;;;5075556;28;20043;-55
2023/07/04 02:28:23;;;;;;;9.50;2.17;;;11.70;99.90;;;;;;5075639;28;20650;-56
2023/07/04 02:30:57;;;;;;;13.23;2.20;;;11.80;99.90;;;;;;5076902;28;20051;-54
2023/07/04 02:33:23;;;;;;;7.75;2.08;;;11.60;99.90;;;;;;5076111;28;20036;-53
2023/07/04 02:35:49;;;;;;;7.97;1.83;;;10.00;99.90;;;;;;5076525;28;20028;-55
2023/07/04 02:38:15;;;;;;;6.10;1.83;;;11.60;99.90;;;;;;5075091;28;20044;-55
2023/07/04 02:40:48;;;;;;;11.57;1.92;;;11.90;99.90;;;;;;5075688;28;20040;-54
2023/07/04 02:43:15;;;;;;;6.30;1.67;;;12.10;99.90;;;;;;5075279;28;20036;-54
2023/07/04 02:45:42;;;;;;;7.50;1.98;;;12.10;99.90;;;;;;5074711;28;20237;-56
2023/07/04 02:48:09;;;;;;;6.03;1.60;;;12.10;99.90;;;;;;5074490;28;20295;-56
2023/07/04 02:50:35;;;;;;;7.60;1.65;;;12.20;99.90;;;;;;5075382;28;20089;-55
2023/07/04 02:53:01;;;;;;;5.15;1.58;;;12.30;99.90;;;;;;5075695;28;20036;-56
2023/07/04 02:55:27;;;;;;;7.18;1.80;;;12.10;99.90;;;;;;5075776;28;20036;-56
2023/07/04 02:57:53;;;;;;;6.45;2.30;;;12.10;99.90;;;;;;5076158;28;20032;-56
2023/07/04 03:00:18;;;;;;;4.10;1.20;;;12.10;99.90;;;;;;5075049;28;20409;-55
2023/07/04 03:02:44;;;;;;;5.28;1.17;;;12.00;99.90;;;;;;5076460;28;20048;-56
2023/07/04 03:05:11;;;;;;;6.25;2.03;;;12.10;99.90;;;;;;5076856;28;20190;-55
2023/07/04 03:07:36;;;;;;;5.13;1.30;;;12.00;99.90;;;;;;5075508;28;20315;-56
2023/07/04 03:10:02;;;;;;;4.60;1.40;;;12.00;99.90;;;;;;5076268;28;20070;-56
2023/07/04 03:12:28;;;;;;;6.03;1.20;;;11.80;99.90;;;;;;5076658;28;20086;-56
2023/07/04 03:14:54;;;;;;;10.68;1.27;;;11.90;99.90;;;;;;5076893;28;20040;-56
2023/07/04 03:17:19;;;;;;;5.90;1.50;;;11.80;99.90;;;;;;5074509;28;20138;-56
2023/07/04 03:19:45;;;;;;;6.18;1.67;;;11.80;99.90;;;;;;5074766;28;20140;-57
2023/07/04 03:22:11;;;;;;;3.05;0.90;;;11.70;99.90;;;;;;5073113;28;20126;-56
2023/07/04 03:24:36;;;;;;;5.53;1.27;;;11.70;99.90;;;;;;5056781;28;20036;-56
2023/07/04 03:27:02;;;;;;;4.20;1.20;;;11.60;99.90;;;;;;5075223;28;20069;-56
2023/07/04 03:29:28;;;;;;;9.75;2.05;;;11.90;99.90;;;;;;5055558;28;20086;-56
2023/07/04 03:31:54;;;;;;;6.63;1.30;;;11.50;99.90;;;;;;5074018;28;20485;-57
2023/07/04 03:34:20;;;;;;;6.45;1.55;;;11.60;99.90;;;;;;5073759;28;20036;-56
2023/07/04 03:36:46;;;;;;;6.30;1.27;;;11.60;99.90;;;;;;5073974;28;20036;-56
2023/07/04 03:39:11;;;;;;;5.13;1.30;;;11.80;99.90;;;;;;5038743;28;20113;-56
2023/07/04 03:41:37;;;;;;;5.18;1.17;;;11.80;99.90;;;;;;5076301;28;20059;-56
2023/07/04 03:44:04;;;;;;;5.68;1.25;;;11.70;99.90;;;;;;5075206;28;20048;-56
2023/07/04 03:46:29;;;;;;;3.58;1.00;;;11.70;99.90;;;;;;5074189;28;20070;-57
2023/07/04 03:48:55;;;;;;;3.53;1.00;;;11.70;99.90;;;;;;5073382;28;20097;-56
2023/07/04 03:51:21;;;;;;;5.38;1.08;;;11.50;99.90;;;;;;5072923;28;20508;-56
2023/07/04 03:53:48;;;;;;;5.60;1.33;;;11.50;99.90;;;;;;5074919;28;20042;-56
2023/07/04 03:56:15;;;;;;;4.40;1.15;;;11.50;99.90;;;;;;5074330;28;20064;-56
2023/07/04 03:58:41;;;;;;;5.85;1.48;;;11.60;99.90;;;;;;5073464;28;20036;-56
2023/07/04 04:01:06;;;;;;;5.20;1.30;;;11.50;99.90;;;;;;5073736;28;20040;-56
2023/07/04 04:03:38;;;;;;;4.18;1.20;;;11.50;99.90;;;;;;5074290;28;20044;-56
2023/07/04 04:06:05;;;;;;;3.97;1.13;;;11.40;99.90;;;;;;5073877;28;20081;-56
2023/07/04 04:08:31;;;;;;;3.53;1.30;;;11.50;99.90;;;;;;5074403;28;20074;-56
2023/07/04 04:10:57;;;;;;;6.88;1.30;;;11.60;99.90;;;;;;5074039;28;20039;-56
2023/07/04 04:13:23;;;;;;;3.85;1.23;;;11.60;99.90;;;;;;5057191;28;20036;-56
2023/07/04 04:15:50;;;;;;;5.40;1.38;;;11.60;99.90;;;;;;5073901;28;20044;-56
2023/07/04 04:18:15;;;;;;;7.03;1.70;;;11.70;99.90;;;;;;5074733;28;20078;-56
2023/07/04 04:20:41;;;;;;;6.55;1.25;;;11.80;99.90;;;;;;5073941;28;20578;-56
2023/07/04 04:23:07;;;;;;;5.90;1.27;;;11.80;99.90;;;;;;5074026;28;20040;-56
2023/07/04 04:25:38;;;;;;;6.25;1.50;;;11.90;99.90;;;;;;5073473;28;20083;-56
2023/07/04 04:28:07;;;;;;;4.93;1.55;;;11.80;99.90;;;;;;5074079;28;20063;-56
2023/07/04 04:30:34;;;;;;;6.70;1.60;;;11.90;99.90;;;;;;5074039;28;20070;-56
2023/07/04 04:33:02;;;;;;;5.55;1.63;;;12.00;99.90;;;;;;5073865;28;20588;-56
2023/07/04 04:35:28;;;;;;;6.53;1.58;;;12.10;99.90;;;;;;5054719;28;20044;-56
2023/07/04 04:37:54;;;;;;;6.97;1.88;;;12.10;99.90;;;;;;5073471;28;20146;-56
2023/07/04 04:40:21;;;;;;;7.00;1.45;;;12.00;99.90;;;;;;5072343;28;20446;-56
2023/07/04 04:42:53;;;;;;;6.88;1.67;;;12.10;99.90;;;;;;5074490;28;20052;-56
2023/07/04 04:45:23;;;;;;;4.18;1.65;;;12.10;99.90;;;;;;5074135;28;20139;-56
2023/07/04 04:47:52;;;;;;;6.47;1.70;;;12.20;99.90;;;;;;5073211;28;20098;-56
2023/07/04 04:50:30;;;;;;;7.28;1.90;;;12.20;99.90;;;;;;5072170;28;20462;-56
2023/07/04 04:52:57;;;;;;;7.53;2.33;;;12.30;99.90;;;;;;5053544;28;20075;-56
2023/07/04 04:55:23;;;;;;;8.18;2.05;;;12.30;99.90;;;;;;5072063;28;20040;-56
2023/07/04 04:57:49;;;;;;;8.13;1.88;;;12.40;99.90;;;;;;5073074;28;20539;-56
2023/07/04 05:00:16;;;;;;;6.90;1.92;;;12.70;99.90;;;;;;5073317;28;20469;-56
2023/07/04 05:02:45;;;;;;;4.55;1.70;;;12.20;99.90;;;;;;5072649;28;20064;-56
2023/07/04 05:05:12;;;;;;;9.45;2.13;;;12.60;99.90;;;;;;5072694;28;20871;-56
2023/07/04 05:07:38;;;;;;;5.07;2.20;;;12.70;99.90;;;;;;5071928;28;20415;-56
2023/07/04 05:10:04;;;;;;;13.40;3.25;;;12.80;99.90;;;;;;5072266;28;20048;-56
2023/07/04 05:12:31;;;;;;;6.95;2.10;;;12.50;99.90;;;;;;5074338;28;20044;-56
2023/07/04 05:14:57;;;;;;;7.10;2.03;;;12.70;99.90;;;;;;5073667;28;20040;-56
2023/07/04 05:17:23;;;;;;;6.25;2.00;;;12.80;99.90;;;;;;5072133;28;20043;-55
2023/07/04 05:19:49;;;;;;;9.68;2.47;;;12.80;99.90;;;;;;5073123;28;20044;-55
2023/07/04 05:22:17;;;;;;;10.85;2.95;;;12.90;99.90;;;;;;5073584;28;20123;-56
2023/07/04 05:24:43;;;;;;;7.28;2.20;;;12.90;99.90;;;;;;5073032;28;20067;-56
2023/07/04 05:27:08;;;;;;;7.95;2.03;;;12.80;99.90;;;;;;5073148;28;20155;-56
2023/07/04 05:29:34;;;;;;;6.30;2.20;;;12.80;99.90;;;;;;5072772;28;20336;-55
2023/07/04 05:32:00;;;;;;;5.82;2.17;;;12.90;99.90;;;;;;5072780;28;20043;-56
2023/07/04 05:34:26;;;;;;;8.43;2.20;;;13.10;99.90;;;;;;5073650;28;20040;-55
2023/07/04 05:36:51;;;;;;;6.35;1.95;;;13.20;99.90;;;;;;5054868;28;20044;-56
2023/07/04 05:39:18;;;;;;;9.18;2.00;;;13.20;99.90;;;;;;5072932;28;20032;-56
2023/07/04 05:41:43;;;;;;;9.05;2.10;;;13.30;99.90;;;;;;5073848;28;21054;-56
2023/07/04 05:44:11;;;;;;;8.02;1.95;;;13.40;99.90;;;;;;5074430;28;20408;-55
2023/07/04 05:46:37;;;;;;;5.57;1.80;;;13.40;99.90;;;;;;5076505;28;20051;-56
2023/07/04 05:49:05;;;;;;;7.65;1.63;;;13.50;99.90;;;;;;5076371;28;20193;-55
2023/07/04 05:51:31;;;;;;;7.82;2.15;;;13.40;99.90;;;;;;5077479;28;20051;-55
2023/07/04 05:53:57;;;;;;;5.82;1.73;;;13.50;99.90;;;;;;5076060;28;20417;-55
2023/07/04 05:56:29;;;;;;;7.63;1.55;;;13.60;99.90;;;;;;5076042;28;20043;-55
2023/07/04 05:59:02;;;;;;;6.88;1.65;;;13.80;99.90;;;;;;5076322;28;20200;-55
2023/07/04 06:01:33;;;;;;;5.88;1.40;;;13.70;99.90;;;;;;5058035;28;20032;-55
2023/07/04 06:04:04;;;;;;;4.78;1.65;;;13.80;99.90;;;;;;5075015;28;20596;-56
2023/07/04 06:06:39;;;;;;;7.68;1.80;;;13.90;99.90;;;;;;5075483;28;20274;-54
2023/07/04 06:09:07;;;;;;;6.65;1.55;;;14.10;99.90;;;;;;5074864;28;20055;-54
2023/07/04 06:11:35;;;;;;;6.47;1.65;;;14.20;99.90;;;;;;5075977;28;20508;-55
2023/07/04 06:14:02;;;;;;;7.45;1.60;;;14.50;99.90;;;;;;5075393;28;20055;-55
2023/07/04 06:16:28;;;;;;;8.63;1.38;;;14.30;99.90;;;;;;5076313;28;20036;-56
2023/07/04 06:18:54;;;;;;;6.13;1.50;;;14.60;99.90;;;;;;5075030;28;20385;-55
2023/07/04 06:21:22;;;;;;;6.65;1.17;;;14.50;99.90;;;;;;5075638;28;20461;-55
2023/07/04 06:23:49;;;;;;;7.03;1.15;;;14.80;99.90;;;;;;5074912;28;20766;-52
2023/07/04 06:26:15;;;;;;;5.05;1.20;;;15.00;99.90;;;;;;5075121;28;20040;-55
2023/07/04 06:28:42;;;;;;;6.93;1.25;;;14.90;99.90;;;;;;5075695;28;20432;-55
2023/07/04 06:31:13;;;;;;;6.93;1.10;;;14.90;99.90;;;;;;5075285;28;20043;-53
2023/07/04 06:33:40;;;;;;;12.23;1.75;;;15.10;99.90;;;;;;5075255;28;20040;-55
2023/07/04 06:36:13;;;;;;;6.53;1.23;;;15.20;99.90;;;;;;5075182;28;20055;-54
2023/07/04 06:38:39;;;;;;;7.28;1.50;;;15.30;99.90;;;;;;5056459;28;20096;-54
2023/07/04 06:41:08;;;;;;;6.75;1.33;;;15.60;99.90;;;;;;5076313;28;20574;-55
2023/07/04 06:43:34;;;;;;;4.65;1.00;;;15.50;99.90;;;;;;5076990;28;20040;-54
2023/07/04 06:46:00;;;;;;;6.82;1.58;;;15.60;99.90;;;;;;5075764;28;20166;-55
2023/07/04 06:48:27;;;;;;;8.27;1.20;;;15.60;99.90;;;;;;5076499;28;20309;-57
2023/07/04 06:51:00;;;;;;;6.53;1.20;;;15.70;99.90;;;;;;5076979;28;20063;-53
2023/07/04 06:53:26;;;;;;;11.75;1.48;;;15.60;99.90;;;;;;5076233;28;20458;-53
2023/07/04 06:55:53;;;;;;;6.07;1.08;;;15.70;99.90;;;;;;5075487;28;20404;-55
2023/07/04 06:58:19;;;;;;;8.20;2.13;;;15.80;99.90;;;;;;5075351;28;20476;-55
2023/07/04 07:00:45;;;;;;;5.57;1.10;;;15.90;99.90;;;;;;5076565;28;20046;-55
2023/07/04 07:03:11;;;;;;;8.50;1.33;;;16.10;99.90;;;;;;5057222;28;20036;-55
2023/07/04 07:05:40;;;;;;;6.65;1.50;;;16.30;99.90;;;;;;5075371;28;20461;-56
2023/07/04 07:08:07;;;;;;;8.57;1.58;;;17.90;99.90;;;;;;5075434;28;20425;-55
2023/07/04 07:10:36;;;;;;;7.32;0.98;;;16.70;99.90;;;;;;5074715;28;20176;-55
2023/07/04 07:13:06;;;;;;;8.98;1.40;;;16.60;99.90;;;;;;5076397;28;20076;-56
2023/07/04 07:15:31;;;;;;;6.30;1.13;;;16.70;99.90;;;;;;5074783;28;20406;-55
2023/07/04 07:17:57;;;;;;;6.80;1.83;;;16.40;99.90;;;;;;5074688;28;20043;-56
2023/07/04 07:20:23;;;;;;;10.70;1.73;;;16.40;99.90;;;;;;5056064;28;20470;-56
2023/07/04 07:22:49;;;;;;;4.68;1.05;;;16.80;99.90;;;;;;5074740;28;20040;-55
2023/07/04 07:25:14;;;;;;;3.78;1.10;;;16.80;99.90;;;;;;5074990;28;20036;-56
2023/07/04 07:27:40;;;;;;;9.07;1.20;;;17.10;99.90;;;;;;5056310;28;20032;-55
2023/07/04 07:30:06;;;;;;;5.15;1.40;;;17.70;99.90;;;;;;5073896;28;20048;-54
2023/07/04 07:32:32;;;;;;;5.03;1.33;;;18.00;99.90;;;;;;5074045;28;21191;-56
2023/07/04 07:34:58;;;;;;;9.25;1.33;;;17.60;99.90;;;;;;5074898;28;20036;-55
2023/07/04 07:37:23;;;;;;;5.90;1.10;;;17.00;99.90;;;;;;5073944;28;20038;-55
2023/07/04 07:39:51;;;;;;;6.93;1.00;;;16.90;99.90;;;;;;5074795;28;20050;-55
2023/07/04 07:42:17;;;;;;;4.75;1.23;;;16.80;99.90;;;;;;5074957;28;20108;-56
2023/07/04 07:44:42;;;;;;;3.95;1.05;;;16.70;99.90;;;;;;5056607;28;20538;-55
2023/07/04 07:47:10;;;;;;;5.93;1.08;;;16.10;99.90;;;;;;5074293;28;20040;-56
2023/07/04 07:49:37;;;;;;;7.60;1.23;;;17.00;99.90;;;;;;5073166;28;20481;-56
2023/07/04 07:52:03;;;;;;;7.38;1.38;;;17.00;99.90;;;;;;5074155;28;20257;-55
2023/07/04 07:54:29;;;;;;;4.95;1.27;;;16.90;99.90;;;;;;5074267;28;20044;-54
2023/07/04 07:56:55;;;;;;;4.10;1.00;;;17.00;99.90;;;;;;5076557;28;20040;-55
2023/07/04 07:59:22;;;;;;;7.43;1.60;;;16.80;99.90;;;;;;5074119;28;20132;-56
2023/07/04 08:01:47;;;;;;;6.38;1.90;;;16.70;99.90;;;;;;5057037;28;20118;-55
2023/07/04 08:04:14;;;;;;;7.18;1.30;;;16.60;99.90;;;;;;5074257;28;22020;-55
2023/07/04 08:06:42;;;;;;;5.85;1.33;;;16.70;99.90;;;;;;5074691;28;20051;-55
2023/07/04 08:09:10;;;;;;;8.10;1.20;;;17.00;99.90;;;;;;5074136;28;20052;-56
2023/07/04 08:11:37;;;;;;;5.40;1.23;;;17.00;99.90;;;;;;5074546;28;20032;-55
2023/07/04 08:14:03;;;;;;;5.38;1.40;;;17.50;99.90;;;;;;5075364;28;20051;-55
2023/07/04 08:16:40;;;;;;;7.88;1.40;;;17.80;99.90;;;;;;5074944;28;20028;-56
2023/07/04 08:19:06;;;;;;;7.03;1.60;;;17.70;99.90;;;;;;5073927;28;20339;-56
2023/07/04 08:21:32;;;;;;;4.28;1.30;;;17.90;99.90;;;;;;5073388;28;20063;-56
2023/07/04 08:23:58;;;;;;;5.32;1.17;;;17.80;99.90;;;;;;5074200;28;20044;-56
2023/07/04 08:26:25;;;;;;;10.63;1.48;;;17.90;99.90;;;;;;5055598;28;20044;-56
2023/07/04 08:28:56;;;;;;;7.68;1.48;;;18.10;99.90;;;;;;5073002;28;20044;-55
2023/07/04 08:31:22;;;;;;;6.57;1.40;;;17.80;99.90;;;;;;5072410;28;20043;-56
2023/07/04 08:33:49;;;;;;;7.65;1.80;;;17.50;99.90;;;;;;5072614;28;20439;-56
2023/07/04 08:36:16;;;;;;;10.98;2.35;;;17.50;99.90;;;;;;5072884;28;20036;-56
2023/07/04 08:38:43;;;;;;;9.35;2.22;;;16.80;99.90;;;;;;5055045;28;20047;-55
2023/07/04 08:41:52;;;;;;;7.85;1.70;;;16.80;99.90;;;;;;5073050;28;20131;-54
2023/07/04 08:44:24;;;;;;;8.07;1.85;;;16.80;99.90;;;;;;5074299;28;20048;-54
2023/07/04 08:46:53;;;;;;;7.35;1.80;;;17.10;99.90;;;;;;5074119;28;20154;-55
2023/07/04 08:49:24;;;;;;;7.90;1.85;;;17.20;99.90;;;;;;5072693;28;20560;-56
2023/07/04 08:51:58;;;;;;;8.88;1.60;;;17.80;99.90;;;;;;5073543;28;20422;-54
2023/07/04 08:54:26;;;;;;;8.70;1.70;;;18.40;99.90;;;;;;5072581;28;20044;-55
2023/07/04 08:56:53;;;;;;;11.13;2.10;;;18.30;99.90;;;;;;5073591;28;20048;-56
2023/07/04 08:59:37;;;;;;;7.05;1.80;;;18.80;99.90;;;;;;5072334;28;20076;-55
2023/07/04 09:02:36;;;;;;;15.90;2.33;;;19.00;99.90;;;;;;5072442;28;20755;-55
2023/07/04 09:05:17;;;;;;;13.77;2.20;;;18.90;99.90;;;;;;5072361;28;20059;-55
2023/07/04 09:08:01;;;;;;;9.95;3.13;;;18.60;99.90;;;;;;5071827;28;20051;-56
2023/07/04 09:10:41;;;;;;;13.52;2.17;;;18.80;99.90;;;;;;5073357;28;20088;-56
2023/07/04 09:13:12;;;;;;;12.25;2.75;;;19.10;99.90;;;;;;5074153;28;20047;-56
2023/07/04 09:15:46;;;;;;;23.60;3.92;;;19.00;99.90;;;;;;5072688;28;20036;-55
2023/07/04 09:18:43;;;;;;;9.38;2.10;;;18.50;99.90;;;;;;5071940;28;20097;-54
2023/07/04 09:21:12;;;;;;;9.55;2.00;;;18.40;99.90;;;;;;5066555;28;20044;-55
2023/07/04 09:23:38;;;;;;;12.50;2.50;;;18.40;99.90;;;;;;5073378;28;20036;-55
2023/07/04 09:26:06;;;;;;;10.07;2.50;;;18.40;99.90;;;;;;5073249;28;20046;-55
2023/07/04 09:28:36;;;;;;;9.70;1.92;;;20.30;99.90;;;;;;5073789;28;20592;-55
2023/07/04 09:31:02;;;;;;;12.90;2.33;;;18.40;99.90;;;;;;5073257;28;20119;-55
2023/07/04 09:33:29;;;;;;;11.77;1.90;;;18.50;99.90;;;;;;5054561;28;20040;-55
2023/07/04 09:35:59;;;;;;;8.48;2.10;;;18.40;99.90;;;;;;5072566;28;20415;-56
2023/07/04 09:38:25;;;;;;;13.20;2.40;;;18.30;99.90;;;;;;5072792;28;20064;-54
2023/07/04 09:40:54;;;;;;;8.68;1.75;;;18.10;99.90;;;;;;5071489;28;20159;-55
2023/07/04 09:43:31;;;;;;;19.85;2.50;;;18.30;99.90;;;;;;5072039;28;20513;-56
2023/07/04 09:46:21;;;;;;;9.90;1.95;;;18.50;99.90;;;;;;5072577;28;20526;-56
2023/07/04 09:48:47;;;;;;;11.85;1.90;;;18.60;99.90;;;;;;5072067;28;20044;-57
2023/07/04 09:51:20;;;;;;;9.00;2.28;;;18.60;99.90;;;;;;5072371;28;20429;-56
2023/07/04 09:53:47;;;;;;;9.45;2.67;;;18.50;99.90;;;;;;5053261;28;20123;-56
2023/07/04 09:56:25;;;;;;;8.98;2.35;;;18.40;99.90;;;;;;5071692;28;20066;-55
2023/07/04 09:59:25;;;;;;;9.25;1.75;;;18.20;99.90;;;;;;5072412;28;20795;-56
2023/07/04 10:01:58;;;;;;;11.27;1.98;;;18.10;99.90;;;;;;5066622;28;20517;-56
2023/07/04 10:04:33;;;;;;;8.63;1.80;;;18.90;99.90;;;;;;5071040;28;20501;-56
2023/07/04 10:06:59;;;;;;;8.98;2.08;;;19.10;99.90;;;;;;5072226;28;20052;-55
2023/07/04 10:09:25;;;;;;;7.80;1.30;;;18.90;99.90;;;;;;5070516;28;20040;-56
2023/07/04 10:12:07;;;;;;;6.70;1.77;;;19.00;99.90;;;;;;5071536;28;20071;-55
2023/07/04 10:14:36;;;;;;;10.80;1.70;;;18.60;99.90;;;;;;5073296;28;20081;-55
2023/07/04 10:17:18;;;;;;;9.70;1.80;;;18.60;99.90;;;;;;5073000;28;20550;-56
2023/07/04 10:19:48;;;;;;;10.52;1.90;;;19.10;99.90;;;;;;5071749;28;20503;-56
2023/07/04 10:22:23;;;;;;;7.50;1.83;;;19.30;99.90;;;;;;5071448;28;20043;-56
2023/07/04 10:24:49;;;;;;;11.02;2.40;;;19.40;99.90;;;;;;5071283;28;20036;-56
2023/07/04 10:27:15;;;;;;;9.73;2.00;;;19.50;99.90;;;;;;5071643;28;20056;-56
2023/07/04 10:29:47;;;;;;;8.93;1.95;;;19.30;99.90;;;;;;5071863;28;20048;-56
2023/07/04 10:32:16;;;;;;;6.22;1.95;;;18.60;99.90;;;;;;5075352;28;20091;-56
2023/07/04 10:34:46;;;;;;;9.55;1.90;;;18.30;99.90;;;;;;5075369;28;20059;-56
2023/07/04 10:37:21;;;;;;;8.98;1.85;;;18.50;99.90;;;;;;5076422;28;20147;-56
2023/07/04 10:39:48;;;;;;;8.00;1.73;;;19.00;99.90;;;;;;5074342;28;20048;-56
2023/07/04 10:42:55;;;;;;;8.88;1.58;;;19.00;99.90;;;;;;5076978;28;20286;-55
2023/07/04 10:45:25;;;;;;;7.50;1.90;;;18.90;99.90;;;;;;5076943;28;20139;-56
2023/07/04 10:47:54;;;;;;;8.07;1.67;;;19.00;99.90;;;;;;5075511;28;20231;-56
2023/07/04 10:50:33;;;;;;;10.68;2.20;;;19.50;99.90;;;;;;5076115;28;20044;-56
2023/07/04 10:53:00;;;;;;;9.25;2.33;;;20.20;99.90;;;;;;5075141;28;20059;-56
2023/07/04 10:55:43;;;;;;;14.88;2.80;;;20.30;99.90;;;;;;5076090;28;20037;-56
2023/07/04 10:58:16;;;;;;;8.20;1.65;;;20.50;99.90;;;;;;5075682;28;20048;-56
2023/07/04 11:01:08;;;;;;;7.50;1.92;;;20.70;99.90;;;;;;5075144;28;20032;-56
2023/07/04 11:04:00;;;;;;;8.32;1.90;;;20.40;99.90;;;;;;5061096;28;20051;-56
2023/07/04 11:06:52;;;;;;;11.98;2.17;;;20.50;99.90;;;;;;5074833;28;20056;-56
2023/07/04 11:09:18;;;;;;;8.27;2.10;;;22.70;99.90;;;;;;5075000;28;20044;-56
2023/07/04 11:11:47;;;;;;;11.10;2.08;;;20.80;99.90;;;;;;5056480;28;20044;-56
2023/07/04 11:14:20;;;;;;;8.13;1.75;;;20.80;99.90;;;;;;5074851;28;20182;-56
2023/07/04 11:16:46;;;;;;;8.45;1.75;;;20.80;99.90;;;;;;5075714;28;20177;-56
2023/07/04 11:19:19;;;;;;;9.48;2.33;;;20.70;99.90;;;;;;5073329;28;20139;-56
2023/07/04 11:22:00;;;;;;;11.27;1.75;;;20.60;99.90;;;;;;5074525;28;20803;-56
2023/07/04 11:24:52;;;;;;;7.03;1.80;;;20.30;99.90;;;;;;5073649;28;20090;-56
2023/07/04 11:27:29;;;;;;;6.60;1.67;;;19.60;99.90;;;;;;5073145;28;20067;-56
2023/07/04 11:30:03;;;;;;;8.80;1.80;;;19.30;99.90;;;;;;5074133;28;20875;-56
2023/07/04 11:32:54;;;;;;;9.95;1.70;;;19.40;99.90;;;;;;5074439;28;20044;-57
2023/07/04 11:35:23;;;;;;;12.05;2.58;;;19.90;99.90;;;;;;5063758;28;20069;-56
2023/07/04 11:37:51;;;;;;;8.32;1.90;;;20.10;99.90;;;;;;5074212;28;20047;-56
2023/07/04 11:40:30;;;;;;;12.48;2.55;;;20.30;99.90;;;;;;5074400;28;20122;-56
2023/07/04 11:43:03;;;;;;;13.40;1.85;;;20.50;99.90;;;;;;5072324;28;20731;-56
2023/07/04 11:45:30;;;;;;;9.98;1.60;;;17.80;99.90;;;;;;5075115;28;20071;-56
2023/07/04 11:48:12;;;;;;;11.57;2.30;;;19.60;99.90;;;;;;5054717;28;20366;-56
2023/07/04 11:50:49;;;;;;;13.07;2.15;;;19.20;99.90;;;;;;5054951;28;20197;-56
2023/07/04 11:53:23;;;;;;;8.90;1.75;;;19.10;99.90;;;;;;5073741;28;20051;-56
2023/07/04 11:56:17;;;;;;;9.13;1.88;;;18.70;99.90;;;;;;5073859;28;20459;-57
2023/07/04 11:58:44;;;;;;;7.88;2.03;;;18.60;99.90;;;;;;5043534;28;20141;-56
2023/07/04 12:01:10;;;;;;;11.32;2.30;;;18.90;99.90;;;;;;5073548;28;20046;-57
2023/07/04 12:03:42;;;;;;;10.48;1.98;;;19.40;99.90;;;;;;5073770;28;20832;-56
2023/07/04 12:06:08;;;;;;;7.95;2.00;;;20.00;99.90;;;;;;5074915;28;20064;-56
2023/07/04 12:09:00;;;;;;;10.35;1.73;;;20.10;99.90;;;;;;5074435;28;20127;-56
2023/07/04 12:11:46;;;;;;;;;;;20.40;99.90;;;;;;5071188;28;20141;-56
2023/07/04 12:14:15;;;;;;;7.75;1.55;;;20.70;99.90;;;;;;5073877;28;19946;-57
2023/07/04 12:16:41;;;;;;;9.85;2.30;;;20.60;99.90;;;;;;5073244;28;20052;-57
2023/07/04 12:19:15;;;;;;;8.68;2.00;;;20.70;99.90;;;;;;5072601;28;20044;-57
2023/07/04 12:21:43;;;;;;;7.22;1.67;;;20.30;99.90;;;;;;5073801;28;20048;-57
2023/07/04 12:24:11;;;;;;;7.72;1.75;;;20.40;99.90;;;;;;5072809;28;20056;-56
2023/07/04 12:26:36;;;;;;;7.97;1.67;;;20.20;99.90;;;;;;5072104;28;21344;-56
2023/07/04 12:29:04;;;;;;;7.07;1.98;;;20.20;99.90;;;;;;5073909;28;20040;-57
2023/07/04 12:31:30;;;;;;;9.80;1.98;;;20.20;99.90;;;;;;5055208;28;20043;-57
2023/07/04 12:33:56;;;;;;;8.65;1.75;;;20.00;99.90;;;;;;5072045;28;20043;-56
2023/07/04 12:36:31;;;;;;;9.40;1.83;;;20.40;99.90;;;;;;5072339;28;20123;-57
2023/07/04 12:38:58;;;;;;;10.98;2.28;;;20.40;99.90;;;;;;5072179;28;20241;-57
2023/07/04 12:41:27;;;;;;;7.75;2.35;;;20.30;99.90;;;;;;5072511;28;20548;-57
2023/07/04 12:44:02;;;;;;;9.48;2.53;;;20.20;99.90;;;;;;5073519;28;20539;-56
2023/07/04 12:46:30;;;;;;;13.82;3.22;;;20.10;99.90;;;;;;5071154;28;20582;-56
2023/07/04 12:48:58;;;;;;;15.15;2.15;;;19.90;99.90;;;;;;5071251;28;20125;-57
2023/07/04 12:51:27;;;;;;;9.32;2.33;;;20.00;99.90;;;;;;5052628;28;20040;-56
2023/07/04 12:53:55;;;;;;;7.22;1.70;;;20.00;99.90;;;;;;5071024;28;20591;-57
2023/07/04 12:56:21;;;;;;;7.20;1.58;;;19.90;99.90;;;;;;5070701;28;20040;-57
2023/07/04 12:58:47;;;;;;;9.35;2.53;;;20.10;99.90;;;;;;5070521;28;20233;-56